sensor_id;sensor_type;location;lat;lon;timestamp;pressure;altitude;pressure_sealevel;temperature;humidity
61742;BME280;47650;49.848;9.620;2023-04-26T00:00:09;99586.13;;;1.97;71.27
61742;BME280;47650;49.848;9.620;2023-04-26T00:02:38;99708.59;;;2.64;71.65
61742;BME280;47650;49.848;9.620;2023-04-26T00:05:11;99692.69;;;2.53;71.19
61742;BME280;47650;49.848;9.620;2023-04-26T00:07:39;99740.56;;;2.83;70.77
61742;BME280;47650;49.848;9.620;2023-04-26T00:10:05;99730.84;;;2.71;70.93
61742;BME280;47650;49.848;9.620;2023-04-26T00:12:31;99740.88;;;2.79;71.67
61742;BME280;47650;49.848;9.620;2023-04-26T00:14:59;99714.78;;;2.63;72.85
61742;BME280;47650;49.848;9.620;2023-04-26T00:17:26;99748.31;;;2.85;72.81
61742;BME280;47650;49.848;9.620;2023-04-26T00:19:53;99744.13;;;2.82;72.12
61742;BME280;47650;49.848;9.620;2023-04-26T00:22:19;99529.06;;;1.45;71.45
61742;BME280;47650;49.848;9.620;2023-04-26T00:24:46;99744.00;;;2.70;70.48
61742;BME280;47650;49.848;9.620;2023-04-26T00:27:15;99673.34;;;2.11;70.68
61742;BME280;47650;49.848;9.620;2023-04-26T00:29:40;99721.25;;;2.41;71.54
61742;BME280;47650;49.848;9.620;2023-04-26T00:32:06;99755.22;;;2.57;71.14
61742;BME280;47650;49.848;9.620;2023-04-26T00:34:32;99751.19;;;2.52;70.72
61742;BME280;47650;49.848;9.620;2023-04-26T00:36:58;99748.00;;;2.47;70.80
61742;BME280;47650;49.848;9.620;2023-04-26T00:39:26;99733.75;;;2.22;70.80
61742;BME280;47650;49.848;9.620;2023-04-26T00:41:52;99652.38;;;1.82;71.22
61742;BME280;47650;49.848;9.620;2023-04-26T00:44:20;99737.13;;;2.24;70.64
61742;BME280;47650;49.848;9.620;2023-04-26T00:46:46;99759.94;;;2.36;71.38
61742;BME280;47650;49.848;9.620;2023-04-26T00:49:15;99755.63;;;2.35;71.61
61742;BME280;47650;49.848;9.620;2023-04-26T00:51:44;99758.25;;;2.35;71.70
61742;BME280;47650;49.848;9.620;2023-04-26T00:54:13;99761.97;;;2.31;71.60
61742;BME280;47650;49.848;9.620;2023-04-26T00:56:41;99652.09;;;1.56;71.37
61742;BME280;47650;49.848;9.620;2023-04-26T00:59:07;99770.38;;;2.22;71.28
61742;BME280;47650;49.848;9.620;2023-04-26T01:01:34;99763.69;;;2.16;72.02
61742;BME280;47650;49.848;9.620;2023-04-26T01:04:03;99740.94;;;2.02;72.43
61742;BME280;47650;49.848;9.620;2023-04-26T01:06:33;99762.13;;;2.14;72.00
61742;BME280;47650;49.848;9.620;2023-04-26T01:09:08;99769.31;;;2.10;71.97
61742;BME280;47650;49.848;9.620;2023-04-26T01:11:36;99764.97;;;2.09;72.03
61742;BME280;47650;49.848;9.620;2023-04-26T01:14:04;99741.41;;;1.95;72.22
61742;BME280;47650;49.848;9.620;2023-04-26T01:16:31;99737.09;;;1.94;72.03
61742;BME280;47650;49.848;9.620;2023-04-26T01:19:05;99714.97;;;1.69;72.39
61742;BME280;47650;49.848;9.620;2023-04-26T01:21:31;99765.94;;;2.08;73.03
61742;BME280;47650;49.848;9.620;2023-04-26T01:23:58;99766.84;;;2.07;72.82
61742;BME280;47650;49.848;9.620;2023-04-26T01:26:24;99681.94;;;1.52;72.42
61742;BME280;47650;49.848;9.620;2023-04-26T01:28:49;99756.94;;;1.98;73.58
61742;BME280;47650;49.848;9.620;2023-04-26T01:31:14;99778.16;;;2.07;73.30
61742;BME280;47650;49.848;9.620;2023-04-26T01:33:40;99748.66;;;1.90;72.67
61742;BME280;47650;49.848;9.620;2023-04-26T01:36:09;99758.13;;;1.92;72.93
61742;BME280;47650;49.848;9.620;2023-04-26T01:38:38;99768.22;;;1.98;72.35
61742;BME280;47650;49.848;9.620;2023-04-26T01:41:03;99794.72;;;1.92;72.13
61742;BME280;47650;49.848;9.620;2023-04-26T01:43:29;99769.75;;;1.86;71.72
61742;BME280;47650;49.848;9.620;2023-04-26T01:45:54;99780.38;;;1.83;72.17
61742;BME280;47650;49.848;9.620;2023-04-26T01:48:20;99462.66;;;-0.07;71.08
61742;BME280;47650;49.848;9.620;2023-04-26T01:50:45;99764.47;;;1.72;71.28
61742;BME280;47650;49.848;9.620;2023-04-26T01:53:32;99757.22;;;1.61;71.23
61742;BME280;47650;49.848;9.620;2023-04-26T01:56:01;99721.81;;;1.40;71.64
61742;BME280;47650;49.848;9.620;2023-04-26T01:58:29;99765.88;;;1.62;71.55
61742;BME280;47650;49.848;9.620;2023-04-26T02:01:04;99619.19;;;0.74;71.42
61742;BME280;47650;49.848;9.620;2023-04-26T02:03:31;99763.34;;;1.60;71.69
61742;BME280;47650;49.848;9.620;2023-04-26T02:05:57;99735.22;;;1.34;71.65
61742;BME280;47650;49.848;9.620;2023-04-26T02:08:22;99762.75;;;1.55;71.88
61742;BME280;47650;49.848;9.620;2023-04-26T02:10:48;99775.91;;;1.54;72.39
61742;BME280;47650;49.848;9.620;2023-04-26T02:13:14;99752.75;;;1.47;72.35
61742;BME280;47650;49.848;9.620;2023-04-26T02:15:40;99692.03;;;1.10;71.89
61742;BME280;47650;49.848;9.620;2023-04-26T02:18:05;99746.13;;;1.24;71.88
61742;BME280;47650;49.848;9.620;2023-04-26T02:20:32;99736.47;;;1.26;71.84
61742;BME280;47650;49.848;9.620;2023-04-26T02:22:57;99775.41;;;1.47;72.05
61742;BME280;47650;49.848;9.620;2023-04-26T02:25:23;99771.13;;;1.46;72.27
61742;BME280;47650;49.848;9.620;2023-04-26T02:27:48;99775.81;;;1.39;71.88
61742;BME280;47650;49.848;9.620;2023-04-26T02:30:14;99742.94;;;1.19;72.43
61742;BME280;47650;49.848;9.620;2023-04-26T02:32:41;99776.66;;;1.40;72.26
61742;BME280;47650;49.848;9.620;2023-04-26T02:35:08;99744.72;;;1.19;72.55
61742;BME280;47650;49.848;9.620;2023-04-26T02:37:34;99742.34;;;1.14;72.88
61742;BME280;47650;49.848;9.620;2023-04-26T02:40:01;99733.00;;;1.10;72.70
61742;BME280;47650;49.848;9.620;2023-04-26T02:42:29;99781.13;;;1.38;72.86
61742;BME280;47650;49.848;9.620;2023-04-26T02:44:55;99665.56;;;0.69;73.11
61742;BME280;47650;49.848;9.620;2023-04-26T02:47:20;99738.22;;;1.10;72.74
61742;BME280;47650;49.848;9.620;2023-04-26T02:49:45;99735.16;;;1.02;72.66
61742;BME280;47650;49.848;9.620;2023-04-26T02:52:11;99785.25;;;1.26;72.46
61742;BME280;47650;49.848;9.620;2023-04-26T02:54:36;99663.16;;;0.48;71.92
61742;BME280;47650;49.848;9.620;2023-04-26T02:57:01;99735.34;;;0.99;72.04
61742;BME280;47650;49.848;9.620;2023-04-26T02:59:28;99752.75;;;0.98;72.26
61742;BME280;47650;49.848;9.620;2023-04-26T03:01:54;99768.94;;;1.05;72.02
61742;BME280;47650;49.848;9.620;2023-04-26T03:04:20;99722.66;;;0.75;72.47
61742;BME280;47650;49.848;9.620;2023-04-26T03:06:45;99773.06;;;1.09;72.33
61742;BME280;47650;49.848;9.620;2023-04-26T03:09:11;99760.75;;;0.95;72.21
61742;BME280;47650;49.848;9.620;2023-04-26T03:11:37;99769.78;;;1.05;73.07
61742;BME280;47650;49.848;9.620;2023-04-26T03:14:05;99774.09;;;1.06;73.17
61742;BME280;47650;49.848;9.620;2023-04-26T03:16:30;99785.06;;;1.13;73.11
61742;BME280;47650;49.848;9.620;2023-04-26T03:18:57;99763.13;;;1.00;72.46
61742;BME280;47650;49.848;9.620;2023-04-26T03:21:22;99775.88;;;1.06;72.42
61742;BME280;47650;49.848;9.620;2023-04-26T03:23:47;99776.09;;;1.01;72.73
61742;BME280;47650;49.848;9.620;2023-04-26T03:26:12;99784.00;;;1.00;73.18
61742;BME280;47650;49.848;9.620;2023-04-26T03:28:43;99755.78;;;0.90;73.58
61742;BME280;47650;49.848;9.620;2023-04-26T03:31:09;99753.03;;;0.93;73.67
61742;BME280;47650;49.848;9.620;2023-04-26T03:33:35;99621.34;;;0.16;73.86
61742;BME280;47650;49.848;9.620;2023-04-26T03:36:02;99767.16;;;1.05;72.71
61742;BME280;47650;49.848;9.620;2023-04-26T03:38:28;99777.00;;;1.00;73.05
61742;BME280;47650;49.848;9.620;2023-04-26T03:40:53;99784.16;;;0.97;73.17
61742;BME280;47650;49.848;9.620;2023-04-26T03:43:20;99782.66;;;0.92;72.67
61742;BME280;47650;49.848;9.620;2023-04-26T03:45:48;99689.72;;;0.39;72.78
61742;BME280;47650;49.848;9.620;2023-04-26T03:48:14;99777.72;;;0.86;72.52
61742;BME280;47650;49.848;9.620;2023-04-26T03:50:40;99759.34;;;0.72;72.99
61742;BME280;47650;49.848;9.620;2023-04-26T03:53:08;99780.25;;;0.88;72.54
61742;BME280;47650;49.848;9.620;2023-04-26T03:55:33;99785.63;;;0.85;72.66
61742;BME280;47650;49.848;9.620;2023-04-26T03:57:58;99787.56;;;0.81;72.37
61742;BME280;47650;49.848;9.620;2023-04-26T04:00:24;99725.25;;;0.42;72.18
61742;BME280;47650;49.848;9.620;2023-04-26T04:02:51;99788.66;;;0.77;72.52
61742;BME280;47650;49.848;9.620;2023-04-26T04:05:17;99774.09;;;0.73;73.12
61742;BME280;47650;49.848;9.620;2023-04-26T04:07:42;99710.19;;;0.29;72.68
61742;BME280;47650;49.848;9.620;2023-04-26T04:10:08;99730.75;;;0.35;72.30
61742;BME280;47650;49.848;9.620;2023-04-26T04:12:36;99779.59;;;0.67;72.92
61742;BME280;47650;49.848;9.620;2023-04-26T04:15:01;99785.38;;;0.73;72.59
61742;BME280;47650;49.848;9.620;2023-04-26T04:17:27;99790.66;;;0.72;72.61
61742;BME280;47650;49.848;9.620;2023-04-26T04:19:54;99792.44;;;0.71;72.70
61742;BME280;47650;49.848;9.620;2023-04-26T04:22:20;99723.16;;;0.31;72.53
61742;BME280;47650;49.848;9.620;2023-04-26T04:24:45;99779.47;;;0.70;72.37
61742;BME280;47650;49.848;9.620;2023-04-26T04:27:11;99750.69;;;0.54;72.32
61742;BME280;47650;49.848;9.620;2023-04-26T04:29:39;99772.63;;;0.67;72.95
61742;BME280;47650;49.848;9.620;2023-04-26T04:32:06;99795.25;;;0.84;72.65
61742;BME280;47650;49.848;9.620;2023-04-26T04:34:36;99793.25;;;0.89;72.63
61742;BME280;47650;49.848;9.620;2023-04-26T04:37:02;99799.41;;;0.88;72.83
61742;BME280;47650;49.848;9.620;2023-04-26T04:39:28;99792.00;;;0.97;72.82
61742;BME280;47650;49.848;9.620;2023-04-26T04:41:55;99803.91;;;1.02;73.09
61742;BME280;47650;49.848;9.620;2023-04-26T04:44:23;99769.00;;;0.87;72.57
61742;BME280;47650;49.848;9.620;2023-04-26T04:46:53;99792.22;;;1.09;73.17
61742;BME280;47650;49.848;9.620;2023-04-26T04:49:19;99809.16;;;1.18;72.52
61742;BME280;47650;49.848;9.620;2023-04-26T04:51:44;99806.41;;;1.21;72.56
61742;BME280;47650;49.848;9.620;2023-04-26T04:54:17;99807.84;;;1.27;72.75
61742;BME280;47650;49.848;9.620;2023-04-26T04:56:43;99710.97;;;0.82;72.84
61742;BME280;47650;49.848;9.620;2023-04-26T04:59:09;99746.97;;;1.09;73.01
61742;BME280;47650;49.848;9.620;2023-04-26T05:01:39;99812.41;;;1.55;73.04
61742;BME280;47650;49.848;9.620;2023-04-26T05:04:07;99805.00;;;1.63;72.90
61742;BME280;47650;49.848;9.620;2023-04-26T05:06:32;99810.75;;;1.70;72.61
61742;BME280;47650;49.848;9.620;2023-04-26T05:09:01;99819.84;;;1.79;72.69
61742;BME280;47650;49.848;9.620;2023-04-26T05:11:31;99806.19;;;1.74;72.17
61742;BME280;47650;49.848;9.620;2023-04-26T05:13:57;99813.88;;;1.93;72.51
61742;BME280;47650;49.848;9.620;2023-04-26T05:16:23;99819.41;;;2.02;72.21
61742;BME280;47650;49.848;9.620;2023-04-26T05:18:51;99809.91;;;2.01;71.87
61742;BME280;47650;49.848;9.620;2023-04-26T05:21:16;99766.22;;;1.72;71.69
61742;BME280;47650;49.848;9.620;2023-04-26T05:23:44;99825.91;;;2.27;71.93
61742;BME280;47650;49.848;9.620;2023-04-26T05:26:18;99792.16;;;2.06;72.00
61742;BME280;47650;49.848;9.620;2023-04-26T05:28:43;99803.28;;;2.26;72.10
61742;BME280;47650;49.848;9.620;2023-04-26T05:31:10;99835.69;;;2.54;71.85
61742;BME280;47650;49.848;9.620;2023-04-26T05:33:36;99750.06;;;2.11;72.24
61742;BME280;47650;49.848;9.620;2023-04-26T05:36:05;99806.47;;;2.61;71.94
61742;BME280;47650;49.848;9.620;2023-04-26T05:38:32;99838.66;;;2.78;71.27
61742;BME280;47650;49.848;9.620;2023-04-26T05:40:57;99841.22;;;2.94;71.53
61742;BME280;47650;49.848;9.620;2023-04-26T05:43:22;99842.59;;;2.85;70.99
61742;BME280;47650;49.848;9.620;2023-04-26T05:45:56;99850.44;;;3.15;71.83
61742;BME280;47650;49.848;9.620;2023-04-26T05:48:24;99829.81;;;3.09;70.63
61742;BME280;47650;49.848;9.620;2023-04-26T05:50:50;99737.84;;;2.71;70.99
61742;BME280;47650;49.848;9.620;2023-04-26T05:53:16;99845.66;;;3.51;71.41
61742;BME280;47650;49.848;9.620;2023-04-26T05:55:42;99851.00;;;3.64;71.08
61742;BME280;47650;49.848;9.620;2023-04-26T05:58:08;99845.91;;;3.75;70.56
61742;BME280;47650;49.848;9.620;2023-04-26T06:00:35;99842.72;;;3.84;70.34
61742;BME280;47650;49.848;9.620;2023-04-26T06:03:04;99841.94;;;3.97;69.77
61742;BME280;47650;49.848;9.620;2023-04-26T06:05:32;99819.66;;;3.89;69.92
61742;BME280;47650;49.848;9.620;2023-04-26T06:07:57;99770.59;;;3.77;69.39
61742;BME280;47650;49.848;9.620;2023-04-26T06:10:26;99843.44;;;4.28;69.89
61742;BME280;47650;49.848;9.620;2023-04-26T06:12:51;99848.38;;;4.32;69.07
61742;BME280;47650;49.848;9.620;2023-04-26T06:15:17;99846.34;;;4.50;70.07
61742;BME280;47650;49.848;9.620;2023-04-26T06:17:48;99839.09;;;4.54;69.55
61742;BME280;47650;49.848;9.620;2023-04-26T06:20:19;99841.34;;;4.73;70.07
61742;BME280;47650;49.848;9.620;2023-04-26T06:22:45;99840.19;;;4.64;68.74
61742;BME280;47650;49.848;9.620;2023-04-26T06:25:12;99834.44;;;4.85;68.75
61742;BME280;47650;49.848;9.620;2023-04-26T06:27:39;99838.66;;;5.00;67.91
61742;BME280;47650;49.848;9.620;2023-04-26T06:30:06;99522.59;;;3.07;67.51
61742;BME280;47650;49.848;9.620;2023-04-26T06:32:32;99842.44;;;5.22;67.01
61742;BME280;47650;49.848;9.620;2023-04-26T06:34:58;99784.94;;;5.04;66.96
61742;BME280;47650;49.848;9.620;2023-04-26T06:37:23;99813.00;;;5.30;66.97
61742;BME280;47650;49.848;9.620;2023-04-26T06:39:50;99830.13;;;5.48;66.55
61742;BME280;47650;49.848;9.620;2023-04-26T06:42:16;99848.28;;;5.64;67.01
61742;BME280;47650;49.848;9.620;2023-04-26T06:44:48;99844.88;;;5.88;66.17
61742;BME280;47650;49.848;9.620;2023-04-26T06:47:14;99846.94;;;6.08;66.20
61742;BME280;47650;49.848;9.620;2023-04-26T06:49:42;99850.19;;;6.25;66.08
61742;BME280;47650;49.848;9.620;2023-04-26T06:52:11;99847.00;;;6.44;65.29
61742;BME280;47650;49.848;9.620;2023-04-26T06:54:44;99847.50;;;6.49;63.88
61742;BME280;47650;49.848;9.620;2023-04-26T06:57:09;99851.81;;;6.74;63.99
61742;BME280;47650;49.848;9.620;2023-04-26T06:59:37;99806.25;;;6.61;63.21
61742;BME280;47650;49.848;9.620;2023-04-26T07:02:05;99575.72;;;5.39;63.01
61742;BME280;47650;49.848;9.620;2023-04-26T07:04:36;99810.19;;;7.02;62.70
61742;BME280;47650;49.848;9.620;2023-04-26T07:07:10;99840.28;;;7.22;61.66
61742;BME280;47650;49.848;9.620;2023-04-26T07:09:36;99792.81;;;7.10;61.80
61742;BME280;47650;49.848;9.620;2023-04-26T07:12:28;99809.25;;;7.37;61.72
61742;BME280;47650;49.848;9.620;2023-04-26T07:15:04;99831.53;;;7.89;61.20
61742;BME280;47650;49.848;9.620;2023-04-26T07:17:31;99728.47;;;7.13;61.00
61742;BME280;47650;49.848;9.620;2023-04-26T07:19:57;99800.81;;;7.77;60.04
61742;BME280;47650;49.848;9.620;2023-04-26T07:22:23;99823.91;;;8.51;58.68
61742;BME280;47650;49.848;9.620;2023-04-26T07:24:48;99766.28;;;7.68;57.87
61742;BME280;47650;49.848;9.620;2023-04-26T07:27:21;99812.78;;;8.68;56.90
61742;BME280;47650;49.848;9.620;2023-04-26T07:29:52;99819.72;;;8.04;57.69
61742;BME280;47650;49.848;9.620;2023-04-26T07:32:20;99816.94;;;8.06;58.71
61742;BME280;47650;49.848;9.620;2023-04-26T07:34:45;99808.19;;;8.70;56.84
61742;BME280;47650;49.848;9.620;2023-04-26T07:37:12;99810.78;;;9.74;54.50
61742;BME280;47650;49.848;9.620;2023-04-26T07:39:39;99725.69;;;9.88;52.93
61742;BME280;47650;49.848;9.620;2023-04-26T07:42:05;99799.19;;;10.25;52.31
61742;BME280;47650;49.848;9.620;2023-04-26T07:44:31;99799.94;;;11.14;51.56
61742;BME280;47650;49.848;9.620;2023-04-26T07:46:56;99807.50;;;11.08;50.05
61742;BME280;47650;49.848;9.620;2023-04-26T07:49:23;99800.00;;;11.69;48.03
61742;BME280;47650;49.848;9.620;2023-04-26T07:51:48;99793.13;;;12.40;48.03
61742;BME280;47650;49.848;9.620;2023-04-26T07:54:17;99789.25;;;12.96;45.47
61742;BME280;47650;49.848;9.620;2023-04-26T07:56:42;99793.59;;;13.58;42.73
61742;BME280;47650;49.848;9.620;2023-04-26T07:59:09;99784.13;;;13.64;40.64
61742;BME280;47650;49.848;9.620;2023-04-26T08:01:35;99786.84;;;13.38;40.56
61742;BME280;47650;49.848;9.620;2023-04-26T08:04:00;99740.31;;;11.45;43.59
61742;BME280;47650;49.848;9.620;2023-04-26T08:06:27;99581.28;;;11.06;43.84
61742;BME280;47650;49.848;9.620;2023-04-26T08:08:53;99770.41;;;11.36;44.90
61742;BME280;47650;49.848;9.620;2023-04-26T08:11:20;99796.94;;;11.64;44.94
61742;BME280;47650;49.848;9.620;2023-04-26T08:14:12;99793.22;;;11.84;43.61
61742;BME280;47650;49.848;9.620;2023-04-26T08:16:44;99791.53;;;12.47;43.26
61742;BME280;47650;49.848;9.620;2023-04-26T08:19:09;99779.81;;;12.04;42.66
61742;BME280;47650;49.848;9.620;2023-04-26T08:21:35;99789.09;;;12.18;43.44
61742;BME280;47650;49.848;9.620;2023-04-26T08:24:06;99802.66;;;11.41;43.25
61742;BME280;47650;49.848;9.620;2023-04-26T08:26:32;99807.03;;;11.23;44.05
61742;BME280;47650;49.848;9.620;2023-04-26T08:28:57;99542.00;;;9.70;43.86
61742;BME280;47650;49.848;9.620;2023-04-26T08:31:22;99720.16;;;11.98;42.97
61742;BME280;47650;49.848;9.620;2023-04-26T08:33:47;99787.38;;;13.41;41.00
61742;BME280;47650;49.848;9.620;2023-04-26T08:36:13;99752.28;;;14.21;38.67
61742;BME280;47650;49.848;9.620;2023-04-26T08:38:39;99650.78;;;13.82;35.63
61742;BME280;47650;49.848;9.620;2023-04-26T08:41:05;99769.78;;;13.22;36.44
61742;BME280;47650;49.848;9.620;2023-04-26T08:43:35;99764.81;;;14.62;35.69
61742;BME280;47650;49.848;9.620;2023-04-26T08:46:03;99788.03;;;15.42;34.76
61742;BME280;47650;49.848;9.620;2023-04-26T08:48:34;99783.94;;;15.63;35.04
61742;BME280;47650;49.848;9.620;2023-04-26T08:51:00;99724.75;;;14.87;34.96
61742;BME280;47650;49.848;9.620;2023-04-26T08:53:27;99787.94;;;14.28;36.57
61742;BME280;47650;49.848;9.620;2023-04-26T08:55:53;99785.63;;;15.55;34.49
61742;BME280;47650;49.848;9.620;2023-04-26T08:58:20;99750.38;;;15.91;33.92
61742;BME280;47650;49.848;9.620;2023-04-26T09:00:46;99772.56;;;16.46;33.02
61742;BME280;47650;49.848;9.620;2023-04-26T09:03:13;99766.53;;;16.67;31.94
61742;BME280;47650;49.848;9.620;2023-04-26T09:05:39;99724.28;;;17.67;29.47
61742;BME280;47650;49.848;9.620;2023-04-26T09:08:08;99637.31;;;17.76;29.35
61742;BME280;47650;49.848;9.620;2023-04-26T09:10:36;99767.28;;;16.61;30.23
61742;BME280;47650;49.848;9.620;2023-04-26T09:13:01;99758.81;;;15.72;30.88
61742;BME280;47650;49.848;9.620;2023-04-26T09:15:27;99670.53;;;15.88;30.76
61742;BME280;47650;49.848;9.620;2023-04-26T09:17:53;99744.31;;;16.67;31.47
61742;BME280;47650;49.848;9.620;2023-04-26T09:20:26;99758.78;;;17.55;30.51
61742;BME280;47650;49.848;9.620;2023-04-26T09:23:12;62682.47;;;-146.85;100.00
61742;BME280;47650;49.848;9.620;2023-04-26T09:25:37;62682.47;;;-146.85;100.00
61742;BME280;47650;49.848;9.620;2023-04-26T09:28:18;62682.47;;;-146.85;100.00
61742;BME280;47650;49.848;9.620;2023-04-26T09:30:44;62682.47;;;-146.85;100.00
61742;BME280;47650;49.848;9.620;2023-04-26T09:33:10;62682.47;;;-146.85;100.00
61742;BME280;47650;49.848;9.620;2023-04-26T09:35:44;62682.47;;;-146.85;100.00
61742;BME280;47650;49.848;9.620;2023-04-26T09:38:14;62682.47;;;-146.85;100.00
61742;BME280;47650;49.848;9.620;2023-04-26T09:40:45;62682.47;;;-146.85;100.00
61742;BME280;47650;49.848;9.620;2023-04-26T09:43:18;62682.47;;;-146.85;100.00
61742;BME280;47650;49.848;9.620;2023-04-26T09:46:04;62682.47;;;-146.85;100.00
61742;BME280;47650;49.848;9.620;2023-04-26T09:48:32;62682.47;;;-146.85;100.00
61742;BME280;47650;49.848;9.620;2023-04-26T09:51:09;62682.47;;;-146.85;100.00
61742;BME280;47650;49.848;9.620;2023-04-26T09:53:41;62682.47;;;-146.85;100.00
61742;BME280;47650;49.848;9.620;2023-04-26T09:56:14;62682.47;;;-146.85;100.00
61742;BME280;47650;49.848;9.620;2023-04-26T09:58:57;62682.47;;;-146.85;100.00
61742;BME280;47650;49.848;9.620;2023-04-26T10:01:25;62682.47;;;-146.85;100.00
61742;BME280;47650;49.848;9.620;2023-04-26T10:04:03;62682.47;;;-146.85;100.00
61742;BME280;47650;49.848;9.620;2023-04-26T10:06:31;99719.06;;;22.66;22.66
61742;BME280;47650;49.848;9.620;2023-04-26T10:08:57;99706.13;;;24.99;19.92
61742;BME280;47650;49.848;9.620;2023-04-26T10:11:23;99690.75;;;24.21;19.27
61742;BME280;47650;49.848;9.620;2023-04-26T10:13:49;99636.94;;;18.86;22.41
61742;BME280;47650;49.848;9.620;2023-04-26T10:16:15;99674.78;;;20.27;21.53
61742;BME280;47650;49.848;9.620;2023-04-26T10:18:41;99694.19;;;16.00;25.60
61742;BME280;47650;49.848;9.620;2023-04-26T10:23:34;99741.09;;;16.33;26.56
61742;BME280;47650;49.848;9.620;2023-04-26T10:26:03;99746.94;;;14.21;29.73
61742;BME280;47650;49.848;9.620;2023-04-26T10:31:15;99647.94;;;13.16;30.94
61742;BME280;47650;49.848;9.620;2023-04-26T10:33:41;99552.19;;;12.39;30.97
61742;BME280;47650;49.848;9.620;2023-04-26T10:38:36;99730.69;;;16.39;27.13
61742;BME280;47650;49.848;9.620;2023-04-26T10:41:31;99725.69;;;16.88;27.27
61742;BME280;47650;49.848;9.620;2023-04-26T10:43:59;99684.66;;;18.55;24.62
61742;BME280;47650;49.848;9.620;2023-04-26T10:46:33;99712.06;;;19.97;23.55
61742;BME280;47650;49.848;9.620;2023-04-26T10:49:12;99646.28;;;19.45;22.43
61742;BME280;47650;49.848;9.620;2023-04-26T10:51:39;99705.47;;;17.16;24.37
61742;BME280;47650;49.848;9.620;2023-04-26T10:54:06;99706.66;;;19.35;21.11
61742;BME280;47650;49.848;9.620;2023-04-26T10:59:19;99697.13;;;17.92;23.06
61742;BME280;47650;49.848;9.620;2023-04-26T11:01:46;99606.06;;;19.85;21.79
61742;BME280;47650;49.848;9.620;2023-04-26T11:04:12;99675.53;;;22.30;19.91
61742;BME280;47650;49.848;9.620;2023-04-26T11:06:48;99657.28;;;24.51;17.74
61742;BME280;47650;49.848;9.620;2023-04-26T11:09:36;99685.22;;;21.22;19.87
61742;BME280;47650;49.848;9.620;2023-04-26T11:12:11;99682.03;;;20.20;20.52
61742;BME280;47650;49.848;9.620;2023-04-26T11:14:44;99678.38;;;16.51;24.82
61742;BME280;47650;49.848;9.620;2023-04-26T11:17:11;99664.56;;;16.77;24.13
61742;BME280;47650;49.848;9.620;2023-04-26T11:19:37;99490.44;;;15.43;23.85
61742;BME280;47650;49.848;9.620;2023-04-26T11:22:06;99644.13;;;16.08;25.35
61742;BME280;47650;49.848;9.620;2023-04-26T11:24:33;99695.75;;;15.94;25.83
61742;BME280;47650;49.848;9.620;2023-04-26T11:27:07;99629.75;;;16.62;23.60
61742;BME280;47650;49.848;9.620;2023-04-26T11:29:33;99670.28;;;17.70;24.63
61742;BME280;47650;49.848;9.620;2023-04-26T11:32:04;99632.09;;;18.39;23.35
61742;BME280;47650;49.848;9.620;2023-04-26T11:34:35;99662.00;;;18.08;23.82
61742;BME280;47650;49.848;9.620;2023-04-26T11:37:03;99636.69;;;17.96;23.54
61742;BME280;47650;49.848;9.620;2023-04-26T11:39:36;99662.31;;;17.98;24.06
61742;BME280;47650;49.848;9.620;2023-04-26T11:42:06;99654.97;;;19.40;22.41
61742;BME280;47650;49.848;9.620;2023-04-26T11:44:33;99651.34;;;20.81;22.18
61742;BME280;47650;49.848;9.620;2023-04-26T11:47:00;99642.97;;;22.19;20.40
61742;BME280;47650;49.848;9.620;2023-04-26T11:49:28;99568.69;;;19.22;21.71
61742;BME280;47650;49.848;9.620;2023-04-26T11:51:54;99664.22;;;18.26;22.67
61742;BME280;47650;49.848;9.620;2023-04-26T11:54:31;99658.91;;;18.11;22.92
61742;BME280;47650;49.848;9.620;2023-04-26T11:56:57;99666.59;;;18.14;22.89
61742;BME280;47650;49.848;9.620;2023-04-26T11:59:25;99656.41;;;18.94;23.80
61742;BME280;47650;49.848;9.620;2023-04-26T12:01:50;99641.50;;;18.85;22.71
61742;BME280;47650;49.848;9.620;2023-04-26T12:04:17;99655.91;;;19.81;22.16
61742;BME280;47650;49.848;9.620;2023-04-26T12:06:46;99648.25;;;19.84;22.32
61742;BME280;47650;49.848;9.620;2023-04-26T12:09:12;99669.59;;;17.68;23.41
61742;BME280;47650;49.848;9.620;2023-04-26T12:11:39;99589.50;;;15.65;24.66
61742;BME280;47650;49.848;9.620;2023-04-26T12:14:05;99601.50;;;17.62;25.19
61742;BME280;47650;49.848;9.620;2023-04-26T12:16:37;99674.75;;;17.48;24.44
61742;BME280;47650;49.848;9.620;2023-04-26T12:19:06;99653.59;;;18.46;23.79
61742;BME280;47650;49.848;9.620;2023-04-26T12:21:42;99589.16;;;22.98;21.05
61742;BME280;47650;49.848;9.620;2023-04-26T12:24:29;99628.81;;;26.16;17.78
61742;BME280;47650;49.848;9.620;2023-04-26T12:27:02;99580.34;;;26.47;16.22
61742;BME280;47650;49.848;9.620;2023-04-26T12:29:31;99626.47;;;25.17;16.65
61742;BME280;47650;49.848;9.620;2023-04-26T12:31:58;99628.94;;;22.35;18.12
61742;BME280;47650;49.848;9.620;2023-04-26T12:34:23;99556.09;;;20.56;20.48
61742;BME280;47650;49.848;9.620;2023-04-26T12:36:50;99575.41;;;22.25;19.28
61742;BME280;47650;49.848;9.620;2023-04-26T12:39:15;99610.41;;;24.39;17.60
61742;BME280;47650;49.848;9.620;2023-04-26T12:41:42;99610.53;;;26.29;17.02
61742;BME280;47650;49.848;9.620;2023-04-26T12:44:09;99590.22;;;28.39;14.61
61742;BME280;47650;49.848;9.620;2023-04-26T12:46:35;99614.44;;;25.12;16.36
61742;BME280;47650;49.848;9.620;2023-04-26T12:49:02;99618.59;;;22.50;18.45
61742;BME280;47650;49.848;9.620;2023-04-26T12:51:28;99626.56;;;20.13;20.87
61742;BME280;47650;49.848;9.620;2023-04-26T12:53:54;99594.56;;;19.29;21.54
61742;BME280;47650;49.848;9.620;2023-04-26T12:56:28;99626.22;;;21.53;19.68
61742;BME280;47650;49.848;9.620;2023-04-26T12:58:54;99621.34;;;22.44;18.22
61742;BME280;47650;49.848;9.620;2023-04-26T13:01:19;99623.59;;;23.39;17.44
61742;BME280;47650;49.848;9.620;2023-04-26T13:03:44;99623.97;;;23.73;16.71
61742;BME280;47650;49.848;9.620;2023-04-26T13:06:10;99610.16;;;26.98;14.65
61742;BME280;47650;49.848;9.620;2023-04-26T13:08:37;99559.75;;;25.95;15.70
61742;BME280;47650;49.848;9.620;2023-04-26T13:11:02;99592.06;;;31.17;13.27
61742;BME280;47650;49.848;9.620;2023-04-26T13:13:28;99598.41;;;27.69;14.06
61742;BME280;47650;49.848;9.620;2023-04-26T13:15:53;99556.97;;;27.99;13.90
61742;BME280;47650;49.848;9.620;2023-04-26T13:18:18;99591.22;;;27.90;14.90